Tucson, AZ (85739)

12:32 AM MST on January 21, 2017 (GMT -0700)
Black Horse Ranch | | Change Station
Active Advisory: Wind Advisory

Elev 3058 ft 32.48 °N, 110.91 °W | Updated 8 seconds ago

Rain
Rain
48.5 °F
Feels Like 46 °F
N
6.0
Wind Variable Wind from SW
Gusts 13.0 mph

Today
High -- | Low -- °F
--% Chance of Precip.
Yesterday
High -- | Low -- °F
Precip. -- in
Pressure 29.57 in
Visibility 10.0 miles
Clouds Few 4600 ft
Scattered Clouds 6500 ft
Windchill 46 °F
Dew Point 45 °F
Humidity 88%
Rainfall 0.11 in
Snow Depth Not available.
7:23 AM 5:46 PM
Last Quarter, 37% visible
SPECI KDMA 210701Z AUTO 18009KT 10SM -RA FEW046 SCT065 09/07 A2957 RMK AO2 RAB01 CHINO RWY30 $
Pressure 29.57 in
Visibility 10.0 miles
Clouds Few 4600 ft
Scattered Clouds 6500 ft
Windchill 46 °F
Dew Point 45 °F
Humidity 88%
Rainfall 0.11 in
Snow Depth Not available.
7:23 AM 5:46 PM
Last Quarter, 37% visible
SPECI KDMA 210701Z AUTO 18009KT 10SM -RA FEW046 SCT065 09/07 A2957 RMK AO2 RAB01 CHINO RWY30 $

Get Your Daily Forecast Email!

Thanks for signing up!

Be on the lookout for a verification email in your inbox.

You'll start receiving the daily forecast at 8 AM.

×

10-Day Weather Forecast

Almanac

Astronomy

Jan. 21, 2017 Rise Set
Actual Time
Civil Twilight
Nautical Twilight
Astronomical Twilight
Moon
Length of Visible Light
Length of Day
Tomorrow will be .
, % of the Moon is Illuminated

Today's Extremes

State Highs State Lows

Community

WunderPhotos

Upload Photos

1,962,540 photos uploaded!

WunderBlog® & News

Nearby

Air Quality

  Air Quality AQ Index Pollutant
Not available.

Snow Depth

Station Depth Elevation

Earthquake Activity

City Distance Mag. Time & Date
Minimum magnitude displayed is 2.5.

Coastal Water Temperatures

Place Temperature

Stations

Nearby Weather Stations

Station Location Temp. Windchill Dew Point Humidity Wind Precip. Elev Updated Type
                   

Watches & Warnings

Wind Advisory
Issued: 10:23 PM MST Jan. 20, 2017 – National Weather Service

... Wind Advisory remains in effect until 8 am MST Saturday...

* impacts... high profile vehicles will be affected by the strong
gusty winds. Loose and unsecured outdoor objects may also be
blown away.

* Timing... peaking during the overnight hours into Saturday
morning... before diminishing after sunrise on Saturday.

* Winds... southwest wind 25 to 35 mph with gusts up to 50 mph
tonight... becoming west and diminishing Saturday morning.

* For a detailed view of the hazard area... visit
weather.Gov/Tucson and click on the detailed hazards tab

Precautionary/preparedness actions...

A Wind Advisory means that sustained winds of 30 mph or greater
are expected in the valleys... or 35 mph or greater above 5000
feet. Higher gusts are also likely. This could make driving
difficult... especially for high profile vehicles. Use extra caution.